sensor_id;sensor_type;location;lat;lon;timestamp;P1;durP1;ratioP1;P2;durP2;ratioP2
66874;SDS011;53784;52.630;4.896;2023-08-20T00:01:15;11.02;;;2.95;;
66874;SDS011;53784;52.630;4.896;2023-08-20T00:03:46;14.65;;;2.72;;
66874;SDS011;53784;52.630;4.896;2023-08-20T00:06:13;10.45;;;2.97;;
66874;SDS011;53784;52.630;4.896;2023-08-20T00:08:38;9.93;;;2.67;;
66874;SDS011;53784;52.630;4.896;2023-08-20T00:11:04;10.48;;;2.47;;
66874;SDS011;53784;52.630;4.896;2023-08-20T00:13:30;11.57;;;3.03;;
66874;SDS011;53784;52.630;4.896;2023-08-20T00:15:55;14.30;;;3.03;;
66874;SDS011;53784;52.630;4.896;2023-08-20T00:18:21;9.50;;;2.80;;
66874;SDS011;53784;52.630;4.896;2023-08-20T00:20:46;8.60;;;2.67;;
66874;SDS011;53784;52.630;4.896;2023-08-20T00:23:12;9.77;;;2.90;;
66874;SDS011;53784;52.630;4.896;2023-08-20T00:25:37;11.48;;;3.28;;
66874;SDS011;53784;52.630;4.896;2023-08-20T00:28:03;10.30;;;3.30;;
66874;SDS011;53784;52.630;4.896;2023-08-20T00:30:29;10.38;;;3.05;;
66874;SDS011;53784;52.630;4.896;2023-08-20T00:32:54;9.73;;;3.28;;
66874;SDS011;53784;52.630;4.896;2023-08-20T00:35:20;9.73;;;2.88;;
66874;SDS011;53784;52.630;4.896;2023-08-20T00:37:46;8.55;;;2.83;;
66874;SDS011;53784;52.630;4.896;2023-08-20T00:40:11;13.13;;;3.03;;
66874;SDS011;53784;52.630;4.896;2023-08-20T00:42:36;9.13;;;2.78;;
66874;SDS011;53784;52.630;4.896;2023-08-20T00:45:02;9.30;;;3.00;;
66874;SDS011;53784;52.630;4.896;2023-08-20T00:47:29;11.32;;;3.00;;
66874;SDS011;53784;52.630;4.896;2023-08-20T00:49:54;7.25;;;2.85;;
66874;SDS011;53784;52.630;4.896;2023-08-20T00:52:19;9.15;;;3.13;;
66874;SDS011;53784;52.630;4.896;2023-08-20T00:54:45;9.80;;;3.20;;
66874;SDS011;53784;52.630;4.896;2023-08-20T00:57:15;12.38;;;3.00;;
66874;SDS011;53784;52.630;4.896;2023-08-20T00:59:42;9.40;;;3.13;;
66874;SDS011;53784;52.630;4.896;2023-08-20T01:02:09;8.45;;;2.97;;
66874;SDS011;53784;52.630;4.896;2023-08-20T01:04:34;11.65;;;2.72;;
66874;SDS011;53784;52.630;4.896;2023-08-20T01:07:09;8.63;;;2.80;;
66874;SDS011;53784;52.630;4.896;2023-08-20T01:12:37;12.23;;;3.08;;
66874;SDS011;53784;52.630;4.896;2023-08-20T01:15:03;10.73;;;3.15;;
66874;SDS011;53784;52.630;4.896;2023-08-20T01:17:29;10.00;;;3.05;;
66874;SDS011;53784;52.630;4.896;2023-08-20T01:19:54;10.35;;;3.10;;
66874;SDS011;53784;52.630;4.896;2023-08-20T01:28:19;8.90;;;2.42;;
66874;SDS011;53784;52.630;4.896;2023-08-20T01:30:47;9.00;;;2.80;;
66874;SDS011;53784;52.630;4.896;2023-08-20T01:33:13;10.48;;;2.60;;
66874;SDS011;53784;52.630;4.896;2023-08-20T01:35:39;9.95;;;2.90;;
66874;SDS011;53784;52.630;4.896;2023-08-20T01:38:05;10.20;;;2.63;;
66874;SDS011;53784;52.630;4.896;2023-08-20T01:40:30;7.82;;;2.53;;
66874;SDS011;53784;52.630;4.896;2023-08-20T01:42:56;6.93;;;2.33;;
66874;SDS011;53784;52.630;4.896;2023-08-20T01:45:21;7.00;;;2.63;;
66874;SDS011;53784;52.630;4.896;2023-08-20T01:47:47;6.25;;;2.45;;
66874;SDS011;53784;52.630;4.896;2023-08-20T01:50:12;9.40;;;2.80;;
66874;SDS011;53784;52.630;4.896;2023-08-20T01:52:38;8.07;;;2.60;;
66874;SDS011;53784;52.630;4.896;2023-08-20T01:55:03;14.85;;;2.80;;
66874;SDS011;53784;52.630;4.896;2023-08-20T01:57:29;11.10;;;2.47;;
66874;SDS011;53784;52.630;4.896;2023-08-20T01:59:54;9.38;;;2.55;;
66874;SDS011;53784;52.630;4.896;2023-08-20T02:02:19;9.63;;;2.22;;
66874;SDS011;53784;52.630;4.896;2023-08-20T02:04:45;10.00;;;2.63;;
66874;SDS011;53784;52.630;4.896;2023-08-20T02:07:10;9.32;;;2.47;;
66874;SDS011;53784;52.630;4.896;2023-08-20T02:09:36;6.47;;;2.22;;
66874;SDS011;53784;52.630;4.896;2023-08-20T02:12:01;9.85;;;2.58;;
66874;SDS011;53784;52.630;4.896;2023-08-20T02:14:26;9.45;;;2.25;;
66874;SDS011;53784;52.630;4.896;2023-08-20T02:16:53;8.65;;;2.42;;
66874;SDS011;53784;52.630;4.896;2023-08-20T02:19:19;7.53;;;2.13;;
66874;SDS011;53784;52.630;4.896;2023-08-20T02:21:44;12.88;;;2.97;;
66874;SDS011;53784;52.630;4.896;2023-08-20T02:24:09;8.20;;;2.30;;
66874;SDS011;53784;52.630;4.896;2023-08-20T02:26:35;6.85;;;2.20;;
66874;SDS011;53784;52.630;4.896;2023-08-20T02:29:00;11.88;;;2.67;;
66874;SDS011;53784;52.630;4.896;2023-08-20T02:31:25;9.65;;;3.03;;
66874;SDS011;53784;52.630;4.896;2023-08-20T02:33:51;9.05;;;2.63;;
66874;SDS011;53784;52.630;4.896;2023-08-20T02:36:16;8.25;;;2.72;;
66874;SDS011;53784;52.630;4.896;2023-08-20T02:38:41;8.57;;;2.60;;
66874;SDS011;53784;52.630;4.896;2023-08-20T02:41:07;11.50;;;2.97;;
66874;SDS011;53784;52.630;4.896;2023-08-20T02:43:32;9.13;;;2.70;;
66874;SDS011;53784;52.630;4.896;2023-08-20T02:45:57;9.75;;;2.67;;
66874;SDS011;53784;52.630;4.896;2023-08-20T02:48:23;10.43;;;3.10;;
66874;SDS011;53784;52.630;4.896;2023-08-20T02:50:52;11.05;;;2.53;;
66874;SDS011;53784;52.630;4.896;2023-08-20T02:53:19;9.70;;;2.65;;
66874;SDS011;53784;52.630;4.896;2023-08-20T02:55:44;10.18;;;2.70;;
66874;SDS011;53784;52.630;4.896;2023-08-20T02:58:09;10.02;;;3.05;;
66874;SDS011;53784;52.630;4.896;2023-08-20T03:00:35;12.07;;;3.30;;
66874;SDS011;53784;52.630;4.896;2023-08-20T03:03:01;10.13;;;2.85;;
66874;SDS011;53784;52.630;4.896;2023-08-20T03:05:29;7.97;;;2.70;;
66874;SDS011;53784;52.630;4.896;2023-08-20T03:07:54;8.90;;;2.78;;
66874;SDS011;53784;52.630;4.896;2023-08-20T03:10:19;13.85;;;2.75;;
66874;SDS011;53784;52.630;4.896;2023-08-20T03:12:44;12.20;;;2.90;;
66874;SDS011;53784;52.630;4.896;2023-08-20T03:15:10;8.57;;;2.50;;
66874;SDS011;53784;52.630;4.896;2023-08-20T03:17:35;9.48;;;2.78;;
66874;SDS011;53784;52.630;4.896;2023-08-20T03:20:00;10.73;;;2.83;;
66874;SDS011;53784;52.630;4.896;2023-08-20T03:22:26;12.05;;;3.10;;
66874;SDS011;53784;52.630;4.896;2023-08-20T03:24:52;11.82;;;3.00;;
66874;SDS011;53784;52.630;4.896;2023-08-20T03:27:18;11.23;;;2.85;;
66874;SDS011;53784;52.630;4.896;2023-08-20T03:29:43;10.90;;;3.15;;
66874;SDS011;53784;52.630;4.896;2023-08-20T03:32:09;8.18;;;2.70;;
66874;SDS011;53784;52.630;4.896;2023-08-20T03:34:34;12.52;;;2.97;;
66874;SDS011;53784;52.630;4.896;2023-08-20T03:37:00;8.82;;;2.88;;
66874;SDS011;53784;52.630;4.896;2023-08-20T03:39:25;11.60;;;3.30;;
66874;SDS011;53784;52.630;4.896;2023-08-20T03:41:51;13.02;;;3.33;;
66874;SDS011;53784;52.630;4.896;2023-08-20T03:44:17;10.57;;;3.40;;
66874;SDS011;53784;52.630;4.896;2023-08-20T03:46:42;15.25;;;3.65;;
66874;SDS011;53784;52.630;4.896;2023-08-20T03:49:08;12.50;;;3.70;;
66874;SDS011;53784;52.630;4.896;2023-08-20T03:51:33;11.95;;;3.80;;
66874;SDS011;53784;52.630;4.896;2023-08-20T03:53:58;11.00;;;3.22;;
66874;SDS011;53784;52.630;4.896;2023-08-20T03:56:24;13.02;;;3.72;;
66874;SDS011;53784;52.630;4.896;2023-08-20T03:58:49;15.68;;;3.70;;
66874;SDS011;53784;52.630;4.896;2023-08-20T04:01:15;15.57;;;3.40;;
66874;SDS011;53784;52.630;4.896;2023-08-20T04:03:40;13.60;;;3.60;;
66874;SDS011;53784;52.630;4.896;2023-08-20T04:06:05;8.35;;;3.30;;
66874;SDS011;53784;52.630;4.896;2023-08-20T04:08:32;9.77;;;3.35;;
66874;SDS011;53784;52.630;4.896;2023-08-20T04:10:57;14.75;;;3.63;;
66874;SDS011;53784;52.630;4.896;2023-08-20T04:13:22;11.75;;;3.30;;
66874;SDS011;53784;52.630;4.896;2023-08-20T04:15:47;14.15;;;3.85;;
66874;SDS011;53784;52.630;4.896;2023-08-20T04:18:13;11.45;;;3.58;;
66874;SDS011;53784;52.630;4.896;2023-08-20T04:20:38;11.60;;;3.45;;
66874;SDS011;53784;52.630;4.896;2023-08-20T04:23:04;11.55;;;3.33;;
66874;SDS011;53784;52.630;4.896;2023-08-20T04:25:29;12.07;;;3.63;;
66874;SDS011;53784;52.630;4.896;2023-08-20T04:27:54;10.80;;;3.63;;
66874;SDS011;53784;52.630;4.896;2023-08-20T04:30:20;9.82;;;3.33;;
66874;SDS011;53784;52.630;4.896;2023-08-20T04:32:45;11.98;;;3.53;;
66874;SDS011;53784;52.630;4.896;2023-08-20T04:35:10;14.52;;;3.45;;
66874;SDS011;53784;52.630;4.896;2023-08-20T04:37:35;12.00;;;3.58;;
66874;SDS011;53784;52.630;4.896;2023-08-20T04:40:01;13.00;;;3.67;;
66874;SDS011;53784;52.630;4.896;2023-08-20T04:42:29;14.75;;;3.80;;
66874;SDS011;53784;52.630;4.896;2023-08-20T04:44:54;11.52;;;3.38;;
66874;SDS011;53784;52.630;4.896;2023-08-20T04:47:20;15.57;;;3.30;;
66874;SDS011;53784;52.630;4.896;2023-08-20T04:49:45;12.05;;;3.30;;
66874;SDS011;53784;52.630;4.896;2023-08-20T04:52:10;12.00;;;3.50;;
66874;SDS011;53784;52.630;4.896;2023-08-20T04:54:36;12.82;;;3.38;;
66874;SDS011;53784;52.630;4.896;2023-08-20T04:57:01;11.68;;;3.10;;
66874;SDS011;53784;52.630;4.896;2023-08-20T04:59:27;8.88;;;3.00;;
66874;SDS011;53784;52.630;4.896;2023-08-20T05:01:52;11.65;;;3.28;;
66874;SDS011;53784;52.630;4.896;2023-08-20T05:04:17;11.77;;;3.40;;
66874;SDS011;53784;52.630;4.896;2023-08-20T05:06:43;13.90;;;3.50;;
66874;SDS011;53784;52.630;4.896;2023-08-20T05:09:08;15.98;;;3.42;;
66874;SDS011;53784;52.630;4.896;2023-08-20T05:11:33;10.52;;;3.22;;
66874;SDS011;53784;52.630;4.896;2023-08-20T05:13:59;14.00;;;3.10;;
66874;SDS011;53784;52.630;4.896;2023-08-20T05:16:24;11.82;;;3.20;;
66874;SDS011;53784;52.630;4.896;2023-08-20T05:18:49;10.73;;;3.00;;
66874;SDS011;53784;52.630;4.896;2023-08-20T05:21:14;10.50;;;3.25;;
66874;SDS011;53784;52.630;4.896;2023-08-20T05:23:40;14.20;;;3.35;;
66874;SDS011;53784;52.630;4.896;2023-08-20T05:26:06;13.13;;;3.20;;
66874;SDS011;53784;52.630;4.896;2023-08-20T05:28:32;11.45;;;3.25;;
66874;SDS011;53784;52.630;4.896;2023-08-20T05:30:57;12.35;;;3.25;;
66874;SDS011;53784;52.630;4.896;2023-08-20T05:33:23;13.65;;;3.25;;
66874;SDS011;53784;52.630;4.896;2023-08-20T05:35:48;9.70;;;3.17;;
66874;SDS011;53784;52.630;4.896;2023-08-20T05:38:14;10.30;;;3.00;;
66874;SDS011;53784;52.630;4.896;2023-08-20T05:40:39;8.77;;;3.22;;
66874;SDS011;53784;52.630;4.896;2023-08-20T05:43:05;10.95;;;3.10;;
66874;SDS011;53784;52.630;4.896;2023-08-20T05:45:30;12.25;;;2.97;;
66874;SDS011;53784;52.630;4.896;2023-08-20T05:47:55;8.60;;;2.92;;
66874;SDS011;53784;52.630;4.896;2023-08-20T05:50:21;9.32;;;3.03;;
66874;SDS011;53784;52.630;4.896;2023-08-20T05:52:48;8.10;;;2.63;;
66874;SDS011;53784;52.630;4.896;2023-08-20T05:55:13;10.80;;;2.65;;
66874;SDS011;53784;52.630;4.896;2023-08-20T05:57:39;8.68;;;2.58;;
66874;SDS011;53784;52.630;4.896;2023-08-20T06:00:04;11.45;;;2.58;;
66874;SDS011;53784;52.630;4.896;2023-08-20T06:02:30;9.27;;;2.40;;
66874;SDS011;53784;52.630;4.896;2023-08-20T06:04:55;10.30;;;2.40;;
66874;SDS011;53784;52.630;4.896;2023-08-20T06:07:21;9.23;;;2.42;;
66874;SDS011;53784;52.630;4.896;2023-08-20T06:09:46;8.43;;;2.22;;
66874;SDS011;53784;52.630;4.896;2023-08-20T06:12:12;10.68;;;2.47;;
66874;SDS011;53784;52.630;4.896;2023-08-20T06:14:37;7.72;;;2.20;;
66874;SDS011;53784;52.630;4.896;2023-08-20T06:17:02;7.60;;;2.22;;
66874;SDS011;53784;52.630;4.896;2023-08-20T06:19:28;7.70;;;2.20;;
66874;SDS011;53784;52.630;4.896;2023-08-20T06:21:54;8.93;;;2.35;;
66874;SDS011;53784;52.630;4.896;2023-08-20T06:24:19;10.80;;;2.40;;
66874;SDS011;53784;52.630;4.896;2023-08-20T06:26:44;8.32;;;2.22;;
66874;SDS011;53784;52.630;4.896;2023-08-20T06:29:10;6.88;;;2.22;;
66874;SDS011;53784;52.630;4.896;2023-08-20T06:31:35;8.85;;;2.30;;
66874;SDS011;53784;52.630;4.896;2023-08-20T06:34:00;8.10;;;2.20;;
66874;SDS011;53784;52.630;4.896;2023-08-20T06:36:26;10.25;;;2.47;;
66874;SDS011;53784;52.630;4.896;2023-08-20T06:38:51;9.45;;;2.28;;
66874;SDS011;53784;52.630;4.896;2023-08-20T06:41:17;8.05;;;2.40;;
66874;SDS011;53784;52.630;4.896;2023-08-20T06:43:42;9.27;;;2.53;;
66874;SDS011;53784;52.630;4.896;2023-08-20T06:46:08;6.90;;;2.30;;
66874;SDS011;53784;52.630;4.896;2023-08-20T06:48:34;8.20;;;2.38;;
66874;SDS011;53784;52.630;4.896;2023-08-20T06:51:07;8.15;;;2.45;;
66874;SDS011;53784;52.630;4.896;2023-08-20T06:53:33;10.25;;;2.42;;
66874;SDS011;53784;52.630;4.896;2023-08-20T06:55:58;11.70;;;2.40;;
66874;SDS011;53784;52.630;4.896;2023-08-20T06:58:23;8.77;;;2.63;;
66874;SDS011;53784;52.630;4.896;2023-08-20T07:00:49;9.33;;;2.30;;
66874;SDS011;53784;52.630;4.896;2023-08-20T07:03:14;10.33;;;2.60;;
66874;SDS011;53784;52.630;4.896;2023-08-20T07:05:39;8.40;;;2.43;;
66874;SDS011;53784;52.630;4.896;2023-08-20T07:08:05;7.03;;;2.10;;
66874;SDS011;53784;52.630;4.896;2023-08-20T07:10:30;8.05;;;2.17;;
66874;SDS011;53784;52.630;4.896;2023-08-20T07:12:55;8.75;;;2.28;;
66874;SDS011;53784;52.630;4.896;2023-08-20T07:15:21;6.67;;;2.00;;
66874;SDS011;53784;52.630;4.896;2023-08-20T07:17:46;7.47;;;2.13;;
66874;SDS011;53784;52.630;4.896;2023-08-20T07:20:11;8.50;;;2.43;;
66874;SDS011;53784;52.630;4.896;2023-08-20T07:22:36;7.50;;;2.10;;
66874;SDS011;53784;52.630;4.896;2023-08-20T07:25:02;8.45;;;2.20;;
66874;SDS011;53784;52.630;4.896;2023-08-20T07:27:27;8.13;;;2.40;;
66874;SDS011;53784;52.630;4.896;2023-08-20T07:29:53;9.73;;;2.30;;
66874;SDS011;53784;52.630;4.896;2023-08-20T07:32:18;8.77;;;2.42;;
66874;SDS011;53784;52.630;4.896;2023-08-20T07:34:43;8.30;;;2.10;;
66874;SDS011;53784;52.630;4.896;2023-08-20T07:37:09;9.87;;;2.40;;
66874;SDS011;53784;52.630;4.896;2023-08-20T07:39:34;7.07;;;2.30;;
66874;SDS011;53784;52.630;4.896;2023-08-20T07:41:59;7.70;;;2.22;;
66874;SDS011;53784;52.630;4.896;2023-08-20T07:44:25;8.63;;;2.17;;
66874;SDS011;53784;52.630;4.896;2023-08-20T07:46:50;7.88;;;2.40;;
66874;SDS011;53784;52.630;4.896;2023-08-20T07:49:16;9.23;;;2.20;;
66874;SDS011;53784;52.630;4.896;2023-08-20T07:51:41;7.60;;;2.07;;
66874;SDS011;53784;52.630;4.896;2023-08-20T07:54:06;7.30;;;2.20;;
66874;SDS011;53784;52.630;4.896;2023-08-20T07:56:32;9.30;;;2.20;;
66874;SDS011;53784;52.630;4.896;2023-08-20T07:58:57;6.70;;;2.17;;
66874;SDS011;53784;52.630;4.896;2023-08-20T08:01:22;6.97;;;2.20;;
66874;SDS011;53784;52.630;4.896;2023-08-20T08:03:48;6.17;;;2.20;;
66874;SDS011;53784;52.630;4.896;2023-08-20T08:06:13;7.47;;;2.40;;
66874;SDS011;53784;52.630;4.896;2023-08-20T08:08:41;9.03;;;2.43;;
66874;SDS011;53784;52.630;4.896;2023-08-20T08:11:08;8.18;;;2.42;;
66874;SDS011;53784;52.630;4.896;2023-08-20T08:13:33;6.43;;;2.20;;
66874;SDS011;53784;52.630;4.896;2023-08-20T08:15:58;9.15;;;2.30;;
66874;SDS011;53784;52.630;4.896;2023-08-20T08:18:24;7.97;;;2.77;;
66874;SDS011;53784;52.630;4.896;2023-08-20T08:20:49;7.33;;;2.47;;
66874;SDS011;53784;52.630;4.896;2023-08-20T08:23:14;7.18;;;2.35;;
66874;SDS011;53784;52.630;4.896;2023-08-20T08:25:40;7.07;;;2.20;;
66874;SDS011;53784;52.630;4.896;2023-08-20T08:28:05;7.00;;;2.30;;
66874;SDS011;53784;52.630;4.896;2023-08-20T08:30:31;6.65;;;2.10;;
66874;SDS011;53784;52.630;4.896;2023-08-20T08:32:56;7.20;;;2.10;;
66874;SDS011;53784;52.630;4.896;2023-08-20T08:35:21;7.38;;;2.15;;
66874;SDS011;53784;52.630;4.896;2023-08-20T08:37:47;8.27;;;2.15;;
66874;SDS011;53784;52.630;4.896;2023-08-20T08:40:12;7.30;;;2.10;;
66874;SDS011;53784;52.630;4.896;2023-08-20T08:42:38;6.78;;;2.05;;
66874;SDS011;53784;52.630;4.896;2023-08-20T08:45:03;6.22;;;2.20;;
66874;SDS011;53784;52.630;4.896;2023-08-20T08:47:29;7.68;;;2.13;;
66874;SDS011;53784;52.630;4.896;2023-08-20T08:49:55;8.38;;;2.30;;
66874;SDS011;53784;52.630;4.896;2023-08-20T08:52:22;7.05;;;2.35;;
66874;SDS011;53784;52.630;4.896;2023-08-20T08:54:48;7.60;;;2.38;;
66874;SDS011;53784;52.630;4.896;2023-08-20T08:57:14;6.30;;;2.40;;
66874;SDS011;53784;52.630;4.896;2023-08-20T08:59:39;6.90;;;2.60;;
66874;SDS011;53784;52.630;4.896;2023-08-20T09:02:08;6.35;;;2.47;;
66874;SDS011;53784;52.630;4.896;2023-08-20T09:04:38;6.20;;;2.47;;
66874;SDS011;53784;52.630;4.896;2023-08-20T09:07:04;6.97;;;2.40;;
66874;SDS011;53784;52.630;4.896;2023-08-20T09:09:29;6.23;;;2.47;;
66874;SDS011;53784;52.630;4.896;2023-08-20T09:11:56;7.93;;;2.63;;
66874;SDS011;53784;52.630;4.896;2023-08-20T09:14:22;5.43;;;2.60;;
66874;SDS011;53784;52.630;4.896;2023-08-20T09:16:58;6.60;;;2.60;;
66874;SDS011;53784;52.630;4.896;2023-08-20T09:19:28;5.30;;;2.55;;
66874;SDS011;53784;52.630;4.896;2023-08-20T09:21:54;5.10;;;2.63;;
66874;SDS011;53784;52.630;4.896;2023-08-20T09:24:31;6.03;;;2.70;;
66874;SDS011;53784;52.630;4.896;2023-08-20T09:27:02;6.75;;;2.58;;
66874;SDS011;53784;52.630;4.896;2023-08-20T09:29:29;7.35;;;2.55;;
66874;SDS011;53784;52.630;4.896;2023-08-20T09:32:00;6.40;;;2.50;;
66874;SDS011;53784;52.630;4.896;2023-08-20T09:34:35;5.88;;;2.30;;
66874;SDS011;53784;52.630;4.896;2023-08-20T09:37:02;7.60;;;2.30;;
66874;SDS011;53784;52.630;4.896;2023-08-20T09:39:27;6.57;;;2.47;;
66874;SDS011;53784;52.630;4.896;2023-08-20T09:41:52;7.13;;;2.70;;
66874;SDS011;53784;52.630;4.896;2023-08-20T09:44:18;6.10;;;2.65;;
66874;SDS011;53784;52.630;4.896;2023-08-20T09:46:44;8.02;;;2.88;;
66874;SDS011;53784;52.630;4.896;2023-08-20T09:49:10;7.80;;;2.80;;
66874;SDS011;53784;52.630;4.896;2023-08-20T09:51:37;7.05;;;2.75;;
66874;SDS011;53784;52.630;4.896;2023-08-20T09:54:10;6.93;;;2.50;;
66874;SDS011;53784;52.630;4.896;2023-08-20T09:56:39;7.15;;;2.40;;
66874;SDS011;53784;52.630;4.896;2023-08-20T09:59:05;6.88;;;2.45;;
66874;SDS011;53784;52.630;4.896;2023-08-20T10:01:31;7.15;;;2.90;;
66874;SDS011;53784;52.630;4.896;2023-08-20T10:03:56;9.75;;;2.95;;
66874;SDS011;53784;52.630;4.896;2023-08-20T10:06:22;6.03;;;2.85;;
66874;SDS011;53784;52.630;4.896;2023-08-20T10:08:48;8.07;;;3.20;;
66874;SDS011;53784;52.630;4.896;2023-08-20T10:11:15;6.68;;;2.70;;
66874;SDS011;53784;52.630;4.896;2023-08-20T10:13:41;8.07;;;2.95;;
66874;SDS011;53784;52.630;4.896;2023-08-20T10:16:06;7.87;;;3.10;;
66874;SDS011;53784;52.630;4.896;2023-08-20T10:18:34;7.35;;;3.17;;
66874;SDS011;53784;52.630;4.896;2023-08-20T10:21:00;6.93;;;3.17;;
66874;SDS011;53784;52.630;4.896;2023-08-20T10:23:26;8.13;;;3.78;;
66874;SDS011;53784;52.630;4.896;2023-08-20T10:25:52;6.43;;;3.60;;
66874;SDS011;53784;52.630;4.896;2023-08-20T10:28:25;6.78;;;4.07;;
66874;SDS011;53784;52.630;4.896;2023-08-20T10:31:04;7.35;;;4.05;;
66874;SDS011;53784;52.630;4.896;2023-08-20T10:33:33;6.70;;;4.10;;
66874;SDS011;53784;52.630;4.896;2023-08-20T10:38:35;6.47;;;4.30;;
66874;SDS011;53784;52.630;4.896;2023-08-20T10:41:00;8.48;;;4.50;;
66874;SDS011;53784;52.630;4.896;2023-08-20T10:46:13;6.65;;;4.47;;
66874;SDS011;53784;52.630;4.896;2023-08-20T10:48:42;7.70;;;4.40;;
66874;SDS011;53784;52.630;4.896;2023-08-20T10:51:13;7.88;;;4.40;;
66874;SDS011;53784;52.630;4.896;2023-08-20T10:56:09;6.68;;;3.92;;
66874;SDS011;53784;52.630;4.896;2023-08-20T10:58:35;6.82;;;4.20;;
66874;SDS011;53784;52.630;4.896;2023-08-20T11:01:20;7.38;;;3.90;;
66874;SDS011;53784;52.630;4.896;2023-08-20T11:03:46;7.18;;;4.25;;
66874;SDS011;53784;52.630;4.896;2023-08-20T11:08:38;7.63;;;4.30;;
66874;SDS011;53784;52.630;4.896;2023-08-20T11:11:07;7.30;;;4.60;;
66874;SDS011;53784;52.630;4.896;2023-08-20T11:13:33;7.45;;;4.60;;
66874;SDS011;53784;52.630;4.896;2023-08-20T11:15:59;6.68;;;4.28;;
66874;SDS011;53784;52.630;4.896;2023-08-20T11:18:24;6.03;;;4.22;;
66874;SDS011;53784;52.630;4.896;2023-08-20T11:20:50;6.05;;;3.85;;
66874;SDS011;53784;52.630;4.896;2023-08-20T11:23:15;7.13;;;4.15;;
66874;SDS011;53784;52.630;4.896;2023-08-20T11:25:42;7.47;;;3.85;;
66874;SDS011;53784;52.630;4.896;2023-08-20T11:28:08;9.00;;;4.32;;
66874;SDS011;53784;52.630;4.896;2023-08-20T11:30:33;7.72;;;4.00;;
66874;SDS011;53784;52.630;4.896;2023-08-20T11:32:59;6.77;;;3.80;;
66874;SDS011;53784;52.630;4.896;2023-08-20T11:35:24;6.17;;;4.00;;
66874;SDS011;53784;52.630;4.896;2023-08-20T11:37:50;7.25;;;4.15;;
66874;SDS011;53784;52.630;4.896;2023-08-20T11:40:17;6.13;;;3.35;;
66874;SDS011;53784;52.630;4.896;2023-08-20T11:42:44;6.22;;;3.80;;
66874;SDS011;53784;52.630;4.896;2023-08-20T11:45:09;6.57;;;3.80;;
66874;SDS011;53784;52.630;4.896;2023-08-20T11:47:38;7.57;;;4.05;;
66874;SDS011;53784;52.630;4.896;2023-08-20T11:50:05;6.68;;;4.00;;
66874;SDS011;53784;52.630;4.896;2023-08-20T11:52:34;8.13;;;4.03;;
66874;SDS011;53784;52.630;4.896;2023-08-20T11:55:00;7.30;;;3.80;;
66874;SDS011;53784;52.630;4.896;2023-08-20T11:57:26;6.60;;;3.10;;
66874;SDS011;53784;52.630;4.896;2023-08-20T11:59:53;6.05;;;3.05;;
66874;SDS011;53784;52.630;4.896;2023-08-20T12:02:25;6.80;;;3.20;;
66874;SDS011;53784;52.630;4.896;2023-08-20T12:04:52;6.15;;;3.05;;
66874;SDS011;53784;52.630;4.896;2023-08-20T12:09:45;6.33;;;2.80;;
66874;SDS011;53784;52.630;4.896;2023-08-20T12:12:10;6.07;;;3.00;;
66874;SDS011;53784;52.630;4.896;2023-08-20T12:14:35;6.23;;;3.03;;
66874;SDS011;53784;52.630;4.896;2023-08-20T12:17:01;5.90;;;2.88;;
66874;SDS011;53784;52.630;4.896;2023-08-20T12:19:28;5.47;;;2.80;;
66874;SDS011;53784;52.630;4.896;2023-08-20T12:21:53;6.65;;;2.72;;
66874;SDS011;53784;52.630;4.896;2023-08-20T12:24:19;7.83;;;3.17;;
66874;SDS011;53784;52.630;4.896;2023-08-20T12:26:45;6.85;;;3.00;;
66874;SDS011;53784;52.630;4.896;2023-08-20T12:29:11;6.40;;;3.05;;
66874;SDS011;53784;52.630;4.896;2023-08-20T12:31:36;5.22;;;2.88;;
66874;SDS011;53784;52.630;4.896;2023-08-20T12:34:02;5.97;;;3.20;;
66874;SDS011;53784;52.630;4.896;2023-08-20T12:36:27;7.03;;;3.10;;
66874;SDS011;53784;52.630;4.896;2023-08-20T12:38:53;6.78;;;3.10;;
66874;SDS011;53784;52.630;4.896;2023-08-20T12:41:18;5.78;;;2.83;;
66874;SDS011;53784;52.630;4.896;2023-08-20T12:43:44;6.18;;;2.70;;
66874;SDS011;53784;52.630;4.896;2023-08-20T12:46:09;5.83;;;2.70;;
66874;SDS011;53784;52.630;4.896;2023-08-20T12:48:35;6.35;;;2.80;;
66874;SDS011;53784;52.630;4.896;2023-08-20T12:51:00;6.07;;;2.90;;
66874;SDS011;53784;52.630;4.896;2023-08-20T12:53:26;5.80;;;2.17;;
66874;SDS011;53784;52.630;4.896;2023-08-20T12:55:51;6.40;;;2.23;;
66874;SDS011;53784;52.630;4.896;2023-08-20T12:58:16;5.23;;;2.00;;
66874;SDS011;53784;52.630;4.896;2023-08-20T13:00:42;5.27;;;1.90;;
66874;SDS011;53784;52.630;4.896;2023-08-20T13:03:07;6.00;;;1.83;;
66874;SDS011;53784;52.630;4.896;2023-08-20T13:05:33;5.50;;;1.80;;
66874;SDS011;53784;52.630;4.896;2023-08-20T13:07:58;6.07;;;1.80;;
66874;SDS011;53784;52.630;4.896;2023-08-20T13:10:24;6.50;;;1.50;;
66874;SDS011;53784;52.630;4.896;2023-08-20T13:12:51;4.50;;;1.30;;
66874;SDS011;53784;52.630;4.896;2023-08-20T13:15:18;6.50;;;1.55;;
66874;SDS011;53784;52.630;4.896;2023-08-20T13:17:45;4.90;;;1.10;;
66874;SDS011;53784;52.630;4.896;2023-08-20T13:20:11;5.40;;;1.20;;
66874;SDS011;53784;52.630;4.896;2023-08-20T13:22:36;5.07;;;1.30;;
66874;SDS011;53784;52.630;4.896;2023-08-20T13:25:02;5.70;;;1.23;;
66874;SDS011;53784;52.630;4.896;2023-08-20T13:27:29;3.90;;;1.02;;
66874;SDS011;53784;52.630;4.896;2023-08-20T13:29:55;5.88;;;1.20;;
66874;SDS011;53784;52.630;4.896;2023-08-20T13:32:20;3.88;;;1.10;;
66874;SDS011;53784;52.630;4.896;2023-08-20T13:34:45;5.43;;;1.10;;
66874;SDS011;53784;52.630;4.896;2023-08-20T13:37:11;4.95;;;1.00;;
66874;SDS011;53784;52.630;4.896;2023-08-20T13:39:36;4.63;;;1.00;;
66874;SDS011;53784;52.630;4.896;2023-08-20T13:42:02;4.00;;;1.00;;
66874;SDS011;53784;52.630;4.896;2023-08-20T13:44:27;4.72;;;1.08;;
66874;SDS011;53784;52.630;4.896;2023-08-20T13:46:52;5.82;;;1.10;;
66874;SDS011;53784;52.630;4.896;2023-08-20T13:49:18;3.85;;;1.00;;
66874;SDS011;53784;52.630;4.896;2023-08-20T13:51:43;4.25;;;0.93;;
66874;SDS011;53784;52.630;4.896;2023-08-20T13:54:08;4.50;;;0.90;;
66874;SDS011;53784;52.630;4.896;2023-08-20T13:56:33;4.68;;;1.15;;
66874;SDS011;53784;52.630;4.896;2023-08-20T13:58:59;5.30;;;1.10;;
66874;SDS011;53784;52.630;4.896;2023-08-20T14:01:24;5.13;;;1.02;;
66874;SDS011;53784;52.630;4.896;2023-08-20T14:03:49;5.78;;;1.10;;
66874;SDS011;53784;52.630;4.896;2023-08-20T14:06:15;5.00;;;1.17;;
66874;SDS011;53784;52.630;4.896;2023-08-20T14:08:41;3.28;;;0.70;;
66874;SDS011;53784;52.630;4.896;2023-08-20T14:11:07;4.57;;;1.00;;
66874;SDS011;53784;52.630;4.896;2023-08-20T14:13:32;5.72;;;1.00;;
66874;SDS011;53784;52.630;4.896;2023-08-20T14:15:57;4.63;;;1.05;;
66874;SDS011;53784;52.630;4.896;2023-08-20T14:18:23;4.60;;;0.90;;
66874;SDS011;53784;52.630;4.896;2023-08-20T14:20:48;5.15;;;1.20;;
66874;SDS011;53784;52.630;4.896;2023-08-20T14:23:13;4.85;;;1.08;;
66874;SDS011;53784;52.630;4.896;2023-08-20T14:25:39;4.60;;;1.02;;
66874;SDS011;53784;52.630;4.896;2023-08-20T14:28:05;4.43;;;0.90;;
66874;SDS011;53784;52.630;4.896;2023-08-20T14:30:31;4.55;;;1.10;;
66874;SDS011;53784;52.630;4.896;2023-08-20T14:32:56;5.30;;;1.00;;
66874;SDS011;53784;52.630;4.896;2023-08-20T14:35:22;4.82;;;1.10;;
66874;SDS011;53784;52.630;4.896;2023-08-20T14:37:47;4.30;;;0.90;;
66874;SDS011;53784;52.630;4.896;2023-08-20T14:40:12;4.57;;;1.00;;
66874;SDS011;53784;52.630;4.896;2023-08-20T14:42:38;4.05;;;1.00;;
66874;SDS011;53784;52.630;4.896;2023-08-20T14:45:04;5.00;;;1.00;;
66874;SDS011;53784;52.630;4.896;2023-08-20T14:47:30;6.25;;;1.23;;
66874;SDS011;53784;52.630;4.896;2023-08-20T14:49:56;3.65;;;0.90;;
66874;SDS011;53784;52.630;4.896;2023-08-20T14:52:21;4.80;;;1.00;;
66874;SDS011;53784;52.630;4.896;2023-08-20T14:54:47;5.07;;;0.93;;
66874;SDS011;53784;52.630;4.896;2023-08-20T14:57:12;3.47;;;1.00;;